Terminal Aerodrome Forecast
Issued by NWS Portland, OR

Home | Current Version | Previous Version | Text Only | Print | Product List | Glossary On
Versions: 1 2 3 4 5 6 7 8 9 10 11 12 13 14 15 16 17 18 19 20 21 22 23 24 25 26 27 28 29 30 31 32 33 34 35 36 37 38 39 40 41 42 43 44 45 46 47 48 49 50
000
FTUS46 KPQR 211737
TAFPDX
TAF
KPDX 211737Z 2118/2218 10012KT P6SM -SHRA SCT025 OVC045
     FM211900 11012KT P6SM -RA BKN030 OVC045
      TEMPO 2119/2122 5SM RA OVC025
     FM220300 15008KT P6SM BKN050
     FM221100 12017KT P6SM -RA BKN025 OVC035=

USA.gov is the U.S. government's official web portal to all federal, state and local government web resources and services.